Time;durP1;ratioP1;P1;durP2;ratioP2;P2;SDS_P1;SDS_P2;PMS_P1;PMS_P2;Temp;Humidity;BMP_temperature;BMP_pressure;BME280_temperature;BME280_humidity;BME280_pressure;Samples;Min_cycle;Max_cycle;Signal;HPM_P1;HPM_P2
2021/12/11 00:02:10;;;;;;;48.92;26.50;;;;;;;-0.25;100.00;100049.69;5028514;28;20667;-73
2021/12/11 00:04:40;;;;;;;53.65;28.25;;;;;;;-0.21;100.00;100061.47;5039500;28;20049;-75
2021/12/11 00:07:10;;;;;;;50.97;28.63;;;;;;;-0.27;100.00;100065.53;5027014;28;20551;-76
2021/12/11 00:09:47;;;;;;;58.20;31.45;;;;;;;-0.30;100.00;100066.22;5027834;28;20041;-75
2021/12/11 00:12:20;;;;;;;48.55;28.92;;;;;;;-0.24;100.00;100075.75;5029201;28;20057;-75
2021/12/11 00:14:53;;;;;;;51.40;27.52;;;;;;;-0.22;100.00;100086.28;5027620;28;20136;-75
2021/12/11 00:17:26;;;;;;;46.67;26.85;;;;;;;-0.24;100.00;100089.34;5031069;28;20049;-75
2021/12/11 00:19:54;;;;;;;51.58;28.95;;;;;;;-0.24;100.00;100097.47;5032309;28;20050;-77
2021/12/11 00:22:24;;;;;;;54.55;26.92;;;;;;;-0.35;100.00;100103.72;5037786;28;20076;-76
2021/12/11 00:24:51;;;;;;;49.10;27.33;;;;;;;-0.45;100.00;100101.44;5031620;28;20132;-75
2021/12/11 00:27:23;;;;;;;58.38;29.27;;;;;;;-0.44;100.00;100105.75;5027227;28;20183;-75
2021/12/11 00:29:50;;;;;;;51.03;27.80;;;;;;;-0.49;100.00;100114.94;5043609;28;20080;-76
2021/12/11 00:32:29;;;;;;;55.83;29.08;;;;;;;-0.51;100.00;100114.47;5027491;28;20136;-75
2021/12/11 00:35:07;;;;;;;49.30;29.45;;;;;;;-0.50;100.00;100123.41;5028631;28;20513;-75
2021/12/11 00:37:34;;;;;;;60.70;32.00;;;;;;;-0.52;100.00;100114.78;5029013;28;20091;-75
2021/12/11 00:40:10;;;;;;;59.83;31.23;;;;;;;-0.54;100.00;100120.56;5026382;28;20045;-75
2021/12/11 00:42:38;;;;;;;55.85;33.33;;;;;;;-0.56;100.00;100127.47;5018097;28;20045;-75
2021/12/11 00:45:14;;;;;;;58.75;32.35;;;;;;;-0.53;100.00;100141.19;5023050;28;20057;-76
2021/12/11 00:47:46;;;;;;;61.83;32.97;;;;;;;-0.56;100.00;100141.88;5032048;28;20045;-79
2021/12/11 00:50:15;;;;;;;62.22;33.03;;;;;;;-0.61;100.00;100149.44;5026453;28;20053;-75
2021/12/11 00:52:49;;;;;;;57.30;32.25;;;;;;;-0.63;100.00;100157.13;5029287;28;20428;-77
2021/12/11 00:55:26;;;;;;;60.38;32.45;;;;;;;-0.66;100.00;100153.16;5027021;28;20053;-75
2021/12/11 00:58:24;;;;;;;55.88;32.90;;;;;;;-0.74;100.00;100175.75;5035199;28;20053;-76
2021/12/11 01:01:11;;;;;;;57.40;32.92;;;;;;;-0.75;100.00;100181.53;5006632;28;20085;-75
2021/12/11 01:03:38;;;;;;;55.92;30.55;;;;;;;-0.77;100.00;100183.81;5022377;28;20058;-76
2021/12/11 01:06:12;;;;;;;57.53;30.25;;;;;;;-0.80;100.00;100195.34;5022442;28;20064;-75
2021/12/11 01:08:43;;;;;;;51.72;28.58;;;;;;;-0.84;100.00;100197.13;5029041;28;20084;-75
2021/12/11 01:11:13;;;;;;;50.67;29.67;;;;;;;-0.85;100.00;100201.75;5026125;28;20050;-75
2021/12/11 01:13:47;;;;;;;55.70;29.55;;;;;;;-0.86;100.00;100207.53;5030147;28;20490;-78
2021/12/11 01:16:15;;;;;;;55.08;29.17;;;;;;;-0.82;100.00;100219.31;5026176;28;20504;-75
2021/12/11 01:18:48;;;;;;;52.50;28.13;;;;;;;-0.85;100.00;100222.69;5021301;28;20045;-75
2021/12/11 01:21:44;;;;;;;50.65;28.05;;;;;;;-0.91;100.00;100226.75;5021739;28;20049;-75
2021/12/11 01:24:41;;;;;;;46.47;27.02;;;;;;;-0.92;100.00;100236.81;5021872;28;20127;-77
2021/12/11 01:27:14;;;;;;;50.83;27.40;;;;;;;-0.93;100.00;100240.66;5020702;28;20069;-78
2021/12/11 01:29:41;;;;;;;52.83;27.63;;;;;;;-0.95;100.00;100255.69;5017224;28;20138;-76
2021/12/11 01:32:10;;;;;;;55.25;26.73;;;;;;;-0.98;100.00;100262.56;5024895;28;20041;-74
2021/12/11 01:34:37;;;;;;;51.10;27.73;;;;;;;-1.03;100.00;100273.66;5020455;28;20141;-76
2021/12/11 01:37:05;;;;;;;44.05;26.08;;;;;;;-1.05;100.00;100275.88;5028552;28;20092;-77
2021/12/11 01:39:38;;;;;;;44.78;24.73;;;;;;;-1.07;100.00;100274.63;5024506;28;20072;-75
2021/12/11 01:42:28;;;;;;;51.63;25.95;;;;;;;-1.12;100.00;100283.75;5009827;28;20058;-75
2021/12/11 01:44:57;;;;;;;45.05;24.92;;;;;;;-1.12;100.00;100291.91;5027053;28;20049;-76
2021/12/11 01:47:33;;;;;;;42.80;23.45;;;;;;;-1.16;100.00;100298.31;5027934;28;20132;-77
2021/12/11 01:50:23;;;;;;;50.45;25.88;;;;;;;-1.26;100.00;100304.94;5027907;28;20053;-76
2021/12/11 01:52:55;;;;;;;48.53;22.92;;;;;;;-1.24;100.00;100310.03;5019529;28;20136;-75
2021/12/11 01:55:39;;;;;;;44.50;23.40;;;;;;;-1.25;100.00;100328.25;5022835;28;20063;-79
2021/12/11 01:58:09;;;;;;;46.92;26.88;;;;;;;-1.25;100.00;100330.19;5015450;28;20133;-76
2021/12/11 02:01:07;;;;;;;51.38;27.25;;;;;;;-1.24;100.00;100327.13;5024304;28;20051;-76
2021/12/11 02:03:34;;;;;;;49.85;27.63;;;;;;;-1.20;100.00;100338.94;5022525;28;20050;-76
2021/12/11 02:06:00;;;;;;;53.78;27.42;;;;;;;-1.16;100.00;100342.56;5020716;28;20550;-75
2021/12/11 02:08:34;;;;;;;52.47;28.40;;;;;;;-1.13;100.00;100346.53;5020560;28;20069;-78
2021/12/11 02:11:12;;;;;;;45.67;28.03;;;;;;;-1.12;100.00;100345.41;5023224;28;20049;-78
2021/12/11 02:13:49;;;;;;;54.05;27.80;;;;;;;-1.10;100.00;100348.59;5040863;28;20134;-78
2021/12/11 02:16:26;;;;;;;55.45;28.50;;;;;;;-1.04;100.00;100356.22;5022797;28;20049;-77
2021/12/11 02:18:59;;;;;;;52.90;27.50;;;;;;;-0.97;100.00;100361.94;5025425;28;20042;-76
2021/12/11 02:21:26;;;;;;;46.88;25.73;;;;;;;-0.97;100.00;100370.09;5034826;28;20160;-77
2021/12/11 02:24:03;;;;;;;47.42;26.23;;;;;;;-1.07;100.00;100377.81;5027479;28;20137;-75
2021/12/11 02:26:31;;;;;;;44.80;25.80;;;;;;;-1.12;100.00;100389.66;5017629;28;20088;-75
2021/12/11 02:29:10;;;;;;;53.15;27.35;;;;;;;-1.13;100.00;100393.50;5021219;28;20064;-75
2021/12/11 02:31:54;;;;;;;48.63;26.23;;;;;;;-1.11;100.00;100390.47;5024911;28;20064;-75
2021/12/11 02:34:29;;;;;;;48.97;26.10;;;;;;;-1.14;100.00;100397.34;5023114;28;20081;-75
2021/12/11 02:37:14;;;;;;;49.85;25.30;;;;;;;-1.20;100.00;100398.66;5028358;28;20053;-76
2021/12/11 02:39:51;;;;;;;50.60;26.88;;;;;;;-1.22;100.00;100400.88;5029475;28;20045;-75
2021/12/11 02:42:21;;;;;;;47.45;26.30;;;;;;;-1.19;100.00;100404.84;5026201;28;20055;-74
2021/12/11 02:45:28;;;;;;;52.33;27.70;;;;;;;-1.24;100.00;100402.34;5030270;28;20473;-75
2021/12/11 02:48:04;;;;;;;52.83;26.33;;;;;;;-1.22;100.00;100411.72;5044589;28;20052;-76
2021/12/11 02:50:30;;;;;;;49.00;27.02;;;;;;;-1.18;100.00;100409.19;5045526;28;20064;-76
2021/12/11 02:53:19;;;;;;;50.58;26.65;;;;;;;-1.17;100.00;100413.47;5030430;28;20164;-74
2021/12/11 02:56:07;;;;;;;44.03;25.40;;;;;;;-1.16;100.00;100415.88;5034301;28;20132;-75
2021/12/11 02:58:38;;;;;;;50.40;27.25;;;;;;;-1.19;100.00;100419.22;5051129;28;20513;-75
2021/12/11 03:01:12;;;;;;;49.58;25.35;;;;;;;-1.16;100.00;100423.19;5034487;28;20129;-74
2021/12/11 03:03:45;;;;;;;48.17;27.10;;;;;;;-1.16;100.00;100434.06;5031345;28;20060;-75
2021/12/11 03:06:22;;;;;;;52.10;24.63;;;;;;;-1.22;100.00;100438.09;5033486;28;20063;-75
2021/12/11 03:08:51;;;;;;;47.47;24.63;;;;;;;-1.26;100.00;100431.72;5029882;28;20140;-75
2021/12/11 03:11:23;;;;;;;46.22;25.15;;;;;;;-1.28;100.00;100439.41;5041624;28;20060;-74
2021/12/11 03:13:51;;;;;;;43.05;24.48;;;;;;;-1.26;100.00;100448.00;5050720;28;20049;-76
2021/12/11 03:16:21;;;;;;;41.42;25.05;;;;;;;-1.26;100.00;100451.50;5030641;28;20053;-75
2021/12/11 03:18:48;;;;;;;49.20;25.85;;;;;;;-1.26;100.00;100454.22;5030290;28;20072;-75
2021/12/11 03:21:16;;;;;;;46.75;24.17;;;;;;;-1.29;100.00;100454.06;5030034;28;20145;-74
2021/12/11 03:23:43;;;;;;;45.65;25.17;;;;;;;-1.29;100.00;100463.00;5050067;28;20067;-75
2021/12/11 03:26:10;;;;;;;53.03;26.60;;;;;;;-1.28;100.00;100467.31;5038035;28;20140;-76
2021/12/11 03:28:37;;;;;;;42.28;23.63;;;;;;;-1.28;100.00;100477.41;5030216;28;20051;-72
2021/12/11 03:31:08;;;;;;;48.45;25.05;;;;;;;-1.25;100.00;100485.66;5030234;28;20122;-75
2021/12/11 03:33:39;;;;;;;45.85;24.15;;;;;;;-1.28;100.00;100480.09;5030147;28;20061;-75
2021/12/11 03:36:07;;;;;;;45.28;24.58;;;;;;;-1.32;100.00;100485.38;5033449;28;20120;-75
2021/12/11 03:38:35;;;;;;;47.33;24.25;;;;;;;-1.33;100.00;100489.22;5028281;28;20057;-75
2021/12/11 03:41:04;;;;;;;46.22;24.23;;;;;;;-1.30;100.00;100494.00;5029345;28;20080;-77
2021/12/11 03:43:31;;;;;;;44.33;23.85;;;;;;;-1.32;100.00;100498.94;5029918;28;20721;-77
2021/12/11 03:46:04;;;;;;;45.28;24.83;;;;;;;-1.29;100.00;100501.00;5044818;28;20080;-76
2021/12/11 03:48:37;;;;;;;47.45;24.60;;;;;;;-1.28;100.00;100508.03;5050526;28;20540;-77
2021/12/11 03:51:07;;;;;;;42.72;24.00;;;;;;;-1.33;100.00;100515.56;5030939;28;20068;-75
2021/12/11 03:53:34;;;;;;;44.13;24.10;;;;;;;-1.31;100.00;100519.56;5030369;28;20065;-74
2021/12/11 03:56:05;;;;;;;46.17;24.92;;;;;;;-1.31;100.00;100519.56;5029539;28;20133;-77
2021/12/11 03:58:32;;;;;;;48.53;24.20;;;;;;;-1.34;100.00;100514.78;5029600;28;20139;-75
2021/12/11 04:01:09;;;;;;;44.63;24.88;;;;;;;-1.34;100.00;100522.09;5033302;28;20490;-75
2021/12/11 04:03:39;;;;;;;47.17;24.20;;;;;;;-1.32;100.00;100530.75;5026634;28;20056;-76
2021/12/11 04:06:07;;;;;;;42.75;23.25;;;;;;;-1.34;100.00;100528.34;5022759;28;20093;-76
2021/12/11 04:08:41;;;;;;;49.53;23.85;;;;;;;-1.35;100.00;100532.16;5044035;28;20136;-75
2021/12/11 04:11:16;;;;;;;48.83;24.73;;;;;;;-1.32;100.00;100539.66;5039068;28;20109;-78
2021/12/11 04:13:44;;;;;;;45.43;25.03;;;;;;;-1.32;100.00;100547.03;5048623;28;20099;-75
2021/12/11 04:16:12;;;;;;;43.10;23.58;;;;;;;-1.33;100.00;100551.66;5049397;28;20509;-75
2021/12/11 04:18:39;;;;;;;44.33;24.02;;;;;;;-1.36;100.00;100546.84;5048635;28;20155;-74
2021/12/11 04:21:07;;;;;;;48.05;24.25;;;;;;;-1.38;100.00;100551.78;5039815;28;20076;-75
2021/12/11 04:23:34;;;;;;;39.60;21.83;;;;;;;-1.41;100.00;100551.66;5030035;28;20498;-74
2021/12/11 04:26:01;;;;;;;43.78;22.52;;;;;;;-1.45;100.00;100554.19;5029913;28;20055;-75
2021/12/11 04:28:31;;;;;;;40.92;23.52;;;;;;;-1.48;100.00;100554.84;5030200;28;20091;-75
2021/12/11 04:31:05;;;;;;;41.45;21.92;;;;;;;-1.51;100.00;100554.69;5029297;28;20061;-75
2021/12/11 04:33:37;;;;;;;41.00;22.48;;;;;;;-1.48;100.00;100570.34;5029055;28;20478;-75
2021/12/11 04:36:10;;;;;;;43.50;24.17;;;;;;;-1.49;100.00;100576.91;5032293;28;20147;-74
2021/12/11 04:38:37;;;;;;;52.45;25.20;;;;;;;-1.50;100.00;100578.81;5017468;28;20555;-75
2021/12/11 04:41:07;;;;;;;52.00;27.42;;;;;;;-1.50;100.00;100578.00;5028717;28;20111;-74
2021/12/11 04:43:34;;;;;;;44.75;24.40;;;;;;;-1.47;100.00;100590.94;5029511;28;20054;-75
2021/12/11 04:46:06;;;;;;;47.00;25.73;;;;;;;-1.47;100.00;100583.59;5030429;28;20140;-75
2021/12/11 04:49:01;;;;;;;48.45;25.08;;;;;;;-1.42;100.00;100596.22;5027787;28;20095;-75
2021/12/11 04:51:48;;;;;;;47.33;25.38;;;;;;;-1.42;100.00;100596.97;5028555;28;20055;-73
2021/12/11 05:10:25;;;;;;;;;;;;;;;-1.14;100.00;100621.88;5028720;28;20049;-74
2021/12/11 05:12:56;;;;;;;50.28;25.98;;;;;;;-1.08;100.00;100634.16;5016494;28;19921;-76
2021/12/11 05:15:28;;;;;;;47.78;24.70;;;;;;;-1.05;100.00;100626.16;5027862;28;20343;-74
2021/12/11 05:17:57;;;;;;;56.35;25.70;;;;;;;-0.95;100.00;100633.97;5028601;28;20087;-74
2021/12/11 05:20:27;;;;;;;46.20;23.95;;;;;;;-0.91;100.00;100634.13;5030405;28;20045;-75
2021/12/11 05:22:55;;;;;;;53.70;24.90;;;;;;;-0.94;100.00;100642.94;5031810;28;20562;-77
2021/12/11 05:25:22;;;;;;;49.75;23.50;;;;;;;-0.88;100.00;100645.13;5029359;28;20528;-74
2021/12/11 05:27:49;;;;;;;44.33;22.20;;;;;;;-0.82;100.00;100662.88;5028068;28;20513;-76
2021/12/11 05:30:26;;;;;;;56.85;20.85;;;;;;;-0.77;100.00;100673.56;5028319;28;20502;-73
2021/12/11 05:32:54;;;;;;;53.40;22.20;;;;;;;-0.70;100.00;100668.44;5028408;28;20055;-74
2021/12/11 05:35:20;;;;;;;48.78;22.83;;;;;;;-0.65;100.00;100675.59;5026627;28;20186;-74
2021/12/11 05:37:47;;;;;;;58.35;22.38;;;;;;;-0.68;100.00;100677.06;5043222;28;20883;-75
2021/12/11 05:40:19;;;;;;;54.10;24.40;;;;;;;-0.60;100.00;100678.16;5042381;28;20171;-74
2021/12/11 05:42:47;;;;;;;57.80;22.45;;;;;;;-0.62;100.00;100692.06;5027506;28;20046;-74
2021/12/11 05:45:14;;;;;;;49.65;23.58;;;;;;;-0.58;100.00;100684.88;5027154;28;20049;-74
2021/12/11 05:47:41;;;;;;;48.53;22.20;;;;;;;-0.53;100.00;100701.00;5028311;28;20497;-75
2021/12/11 05:50:13;;;;;;;56.58;22.65;;;;;;;-0.47;100.00;100710.56;5027495;28;20433;-75
2021/12/11 05:52:40;;;;;;;65.68;22.50;;;;;;;-0.44;100.00;100709.16;5027984;28;20144;-75
2021/12/11 05:55:09;;;;;;;63.97;25.05;;;;;;;-0.40;100.00;100720.97;5027581;28;20474;-77
2021/12/11 05:57:37;;;;;;;85.40;31.20;;;;;;;-0.35;100.00;100729.75;5031776;28;20131;-75
2021/12/11 06:00:10;;;;;;;65.60;23.88;;;;;;;-0.35;100.00;100734.38;5027573;28;20049;-77
2021/12/11 06:02:56;;;;;;;71.60;25.05;;;;;;;-0.31;100.00;100743.47;5027080;28;20140;-76
2021/12/11 06:05:23;;;;;;;73.32;24.25;;;;;;;-0.30;100.00;100740.41;5028098;28;20054;-74
2021/12/11 06:07:52;;;;;;;57.90;23.08;;;;;;;-0.28;100.00;100732.75;5037282;28;20050;-74
2021/12/11 06:10:20;;;;;;;26.92;11.90;;;;;;;-0.21;100.00;100748.56;5028146;28;20042;-74
2021/12/11 06:12:49;;;;;;;75.70;27.95;;;;;;;-0.17;100.00;100750.31;5027889;28;20091;-75
2021/12/11 06:15:16;;;;;;;76.75;26.15;;;;;;;-0.18;100.00;100751.44;5028098;28;20136;-75
2021/12/11 06:17:44;;;;;;;83.00;27.75;;;;;;;-0.16;100.00;100749.16;5028198;28;20057;-75
2021/12/11 06:20:14;;;;;;;80.20;28.13;;;;;;;-0.09;100.00;100763.06;5032038;28;20065;-74
2021/12/11 06:22:41;;;;;;;85.90;26.52;;;;;;;-0.03;100.00;100758.28;5042507;28;20433;-75
2021/12/11 06:25:16;;;;;;;93.07;31.77;;;;;;;0.01;100.00;100767.38;5031760;28;20136;-75
2021/12/11 06:27:43;;;;;;;89.47;31.40;;;;;;;0.07;100.00;100781.59;5031629;28;20132;-76
2021/12/11 06:30:11;;;;;;;87.85;33.60;;;;;;;0.10;100.00;100789.09;5050509;28;20113;-75
2021/12/11 06:32:38;;;;;;;103.43;32.17;;;;;;;0.15;100.00;100789.72;5033251;28;20145;-75
2021/12/11 06:35:14;;;;;;;70.05;24.67;;;;;;;0.19;100.00;100785.22;5037227;28;20433;-76
2021/12/11 06:37:41;;;;;;;92.40;32.80;;;;;;;0.26;100.00;100787.44;5036861;28;20141;-76
2021/12/11 06:40:10;;;;;;;105.25;32.08;;;;;;;0.26;100.00;100787.44;5031506;28;20108;-73
2021/12/11 06:42:36;;;;;;;80.90;26.90;;;;;;;0.33;100.00;100795.91;5029688;28;20502;-76
2021/12/11 06:45:04;;;;;;;57.65;20.38;;;;;;;0.37;100.00;100802.28;5031434;28;20073;-75
2021/12/11 06:47:31;;;;;;;100.82;32.38;;;;;;;0.42;100.00;100802.88;5029330;28;20470;-74
2021/12/11 06:49:58;;;;;;;80.93;27.05;;;;;;;0.47;100.00;100807.34;5029794;28;20135;-74
2021/12/11 06:52:25;;;;;;;23.60;11.40;;;;;;;0.50;100.00;100817.59;5043620;28;20064;-73
2021/12/11 06:54:53;;;;;;;98.20;36.47;;;;;;;0.58;100.00;100822.19;5048142;28;20144;-74
2021/12/11 06:57:21;;;;;;;79.88;30.63;;;;;;;0.55;100.00;100833.72;5026728;28;20133;-75
2021/12/11 06:59:48;;;;;;;33.30;14.98;;;;;;;0.60;100.00;100836.28;5031623;28;20534;-75
2021/12/11 07:02:19;;;;;;;40.22;17.40;;;;;;;0.65;100.00;100839.63;5047220;28;20139;-74
2021/12/11 07:04:48;;;;;;;86.13;29.83;;;;;;;0.65;100.00;100831.44;5033109;28;20080;-75
2021/12/11 07:07:21;;;;;;;18.25;6.35;;;;;;;0.68;100.00;100849.84;5049664;28;20053;-74
2021/12/11 07:09:49;;;;;;;42.15;17.48;;;;;;;0.70;100.00;100850.31;5036527;28;20137;-75
2021/12/11 07:12:16;;;;;;;47.50;19.27;;;;;;;0.70;100.00;100852.22;5026951;28;20137;-72
2021/12/11 07:14:42;;;;;;;103.65;36.15;;;;;;;0.80;100.00;100862.75;5029564;28;20067;-75
2021/12/11 07:17:09;;;;;;;82.63;31.02;;;;;;;0.78;100.00;100874.00;5044007;28;20049;-73
2021/12/11 07:19:35;;;;;;;41.90;13.25;;;;;;;0.76;100.00;100872.72;5031143;28;20501;-75
2021/12/11 07:22:05;;;;;;;87.80;30.15;;;;;;;0.82;100.00;100883.09;5027175;28;20084;-73
2021/12/11 07:24:38;;;;;;;16.85;7.63;;;;;;;0.79;100.00;100878.31;5030393;28;20063;-74
2021/12/11 07:27:08;;;;;;;41.00;16.40;;;;;;;0.83;100.00;100883.88;5023378;28;20052;-74
2021/12/11 07:29:36;;;;;;;33.42;14.23;;;;;;;0.80;100.00;100885.34;5030552;28;20061;-75
2021/12/11 07:32:04;;;;;;;64.63;23.95;;;;;;;0.86;100.00;100900.38;5049610;28;20140;-73
2021/12/11 07:34:31;;;;;;;87.05;29.77;;;;;;;0.88;100.00;100905.50;5030570;28;20057;-77
2021/12/11 07:36:59;;;;;;;69.20;24.20;;;;;;;0.95;100.00;100895.69;5041737;28;20140;-74
2021/12/11 07:39:26;;;;;;;59.22;19.80;;;;;;;0.91;100.00;100910.31;5031036;28;20049;-75
2021/12/11 07:41:53;;;;;;;67.07;25.67;;;;;;;1.03;100.00;100913.09;5029689;28;20073;-74
2021/12/11 07:44:22;;;;;;;39.70;16.42;;;;;;;1.05;100.00;100927.22;5032056;28;20088;-76
2021/12/11 07:46:50;;;;;;;23.13;8.65;;;;;;;1.02;100.00;100936.03;5030865;28;20053;-75
2021/12/11 07:49:17;;;;;;;38.38;16.45;;;;;;;1.07;100.00;100933.13;5028711;28;20409;-74
2021/12/11 07:51:44;;;;;;;85.28;23.50;;;;;;;1.12;100.00;100922.84;5029250;28;20049;-77
2021/12/11 07:54:11;;;;;;;49.42;18.02;;;;;;;1.18;100.00;100943.31;5025558;28;20158;-75
2021/12/11 07:56:38;;;;;;;98.85;31.35;;;;;;;1.20;100.00;100945.72;5028200;28;20147;-72
2021/12/11 07:59:07;;;;;;;69.30;27.45;;;;;;;1.03;100.00;100946.63;5028916;28;20053;-74
2021/12/11 08:01:36;;;;;;;31.83;12.32;;;;;;;1.16;100.00;100942.88;5025006;28;20048;-74
2021/12/11 08:04:05;;;;;;;83.40;28.77;;;;;;;1.23;100.00;100958.69;5033294;28;20044;-75
2021/12/11 08:06:35;;;;;;;55.03;24.02;;;;;;;1.20;100.00;100968.31;5013183;28;20049;-77
2021/12/11 08:09:06;;;;;;;35.15;16.05;;;;;;;1.27;100.00;100970.53;5009567;28;20054;-76
2021/12/11 08:11:34;;;;;;;94.80;33.83;;;;;;;1.33;100.00;100978.19;5034613;28;20128;-75
2021/12/11 08:14:01;;;;;;;83.45;31.85;;;;;;;1.36;100.00;100974.00;5034859;28;20547;-72
2021/12/11 08:16:35;;;;;;;87.63;32.08;;;;;;;1.39;100.00;100984.25;5036491;28;20175;-67
2021/12/11 08:19:04;;;;;;;56.17;23.20;;;;;;;1.41;100.00;100987.44;5015031;28;20092;-70
2021/12/11 08:21:31;;;;;;;98.50;34.33;;;;;;;1.43;100.00;100980.56;5023193;28;20041;-73
2021/12/11 08:24:04;;;;;;;94.85;34.15;;;;;;;1.44;100.00;100986.78;5033692;28;20049;-77
2021/12/11 08:26:32;;;;;;;108.25;34.17;;;;;;;1.51;100.00;100998.78;5024201;28;20065;-76
2021/12/11 08:28:59;;;;;;;82.60;28.92;;;;;;;1.57;100.00;101002.91;5027578;28;20081;-75
2021/12/11 08:31:25;;;;;;;86.25;29.52;;;;;;;1.61;100.00;101011.22;5019508;28;20473;-76
2021/12/11 08:33:53;;;;;;;111.72;32.15;;;;;;;1.64;100.00;101016.84;5025688;28;20057;-75
2021/12/11 08:36:22;;;;;;;44.20;19.42;;;;;;;1.54;100.00;101017.22;5024836;28;20085;-76
2021/12/11 08:38:50;;;;;;;63.40;24.52;;;;;;;1.64;100.00;101014.09;5029566;28;20565;-75
2021/12/11 08:41:22;;;;;;;97.70;33.72;;;;;;;1.71;100.00;101019.03;5022697;28;20517;-75
2021/12/11 08:43:56;;;;;;;99.60;35.00;;;;;;;1.74;100.00;101030.09;5019750;28;20140;-74
2021/12/11 08:46:27;;;;;;;80.97;30.45;;;;;;;1.76;100.00;101030.53;5021863;28;20056;-78
2021/12/11 08:48:58;;;;;;;116.20;34.47;;;;;;;1.76;100.00;101032.50;5021543;28;20057;-76
2021/12/11 08:51:29;;;;;;;106.20;32.58;;;;;;;1.86;100.00;101043.03;5019304;28;20135;-73
2021/12/11 08:53:56;;;;;;;96.82;32.45;;;;;;;1.91;100.00;101042.81;5026946;28;20164;-75
2021/12/11 08:56:24;;;;;;;77.32;24.77;;;;;;;1.88;100.00;101057.13;5020795;28;20073;-74
2021/12/11 08:58:52;;;;;;;85.70;29.65;;;;;;;1.90;100.00;101049.41;5022660;28;20542;-75
2021/12/11 09:01:40;;;;;;;99.90;32.42;;;;;;;1.96;100.00;101059.78;5020072;28;20057;-75
2021/12/11 09:04:12;;;;;;;92.88;33.50;;;;;;;2.01;100.00;101056.06;5022090;28;20060;-74
2021/12/11 09:06:48;;;;;;;64.07;20.60;;;;;;;2.00;100.00;101046.28;5026595;28;20576;-75
2021/12/11 09:09:21;;;;;;;68.57;25.60;;;;;;;2.07;100.00;101047.38;5008666;28;20053;-75
2021/12/11 09:11:54;;;;;;;103.35;33.92;;;;;;;2.15;100.00;101053.88;5007858;28;20384;-74
2021/12/11 09:14:33;;;;;;;107.28;31.90;;;;;;;2.21;100.00;101053.34;5029121;28;20052;-74
2021/12/11 09:17:12;;;;;;;103.93;33.60;;;;;;;2.21;100.00;101067.00;5033423;28;20049;-75
2021/12/11 09:19:50;;;;;;;25.13;10.27;;;;;;;2.23;100.00;101067.44;5023540;28;20050;-72
2021/12/11 09:22:31;;;;;;;78.05;27.02;;;;;;;2.29;100.00;101068.84;5023367;28;20137;-75
2021/12/11 09:25:16;;;;;;;81.68;28.10;;;;;;;2.30;100.00;101081.38;5021936;28;20076;-74
2021/12/11 09:27:50;;;;;;;77.65;27.13;;;;;;;2.34;100.00;101078.78;5026829;28;20133;-74
2021/12/11 09:30:29;;;;;;;95.25;32.35;;;;;;;2.40;100.00;101080.97;5030647;28;20104;-73
2021/12/11 09:33:03;;;;;;;91.90;30.60;;;;;;;2.45;100.00;101079.97;5026567;28;20136;-73
2021/12/11 09:35:33;;;;;;;101.03;32.20;;;;;;;2.50;100.00;101090.72;5028588;28;20136;-74
2021/12/11 09:38:16;;;;;;;97.00;32.83;;;;;;;2.57;100.00;101093.69;5029444;28;20061;-73
2021/12/11 09:40:52;;;;;;;104.93;33.25;;;;;;;2.63;100.00;101097.81;5020736;28;20041;-74
2021/12/11 09:43:57;;;;;;;106.32;34.35;;;;;;;2.67;100.00;101102.28;5017320;28;20092;-72
2021/12/11 09:46:35;;;;;;;97.45;33.15;;;;;;;2.74;100.00;101105.25;5018223;28;20056;-72
2021/12/11 09:49:06;;;;;;;119.20;36.47;;;;;;;2.78;100.00;101108.91;5028152;28;20053;-73
2021/12/11 09:51:37;;;;;;;115.30;39.08;;;;;;;2.87;100.00;101117.03;5015492;28;20473;-74
2021/12/11 09:54:13;;;;;;;95.07;32.45;;;;;;;2.94;100.00;101120.03;5023055;28;20061;-74
2021/12/11 09:56:45;;;;;;;94.50;34.33;;;;;;;2.98;100.00;101110.03;5029490;28;20107;-74
2021/12/11 09:59:15;;;;;;;114.40;36.53;;;;;;;3.03;100.00;101112.53;5030029;28;20045;-74
2021/12/11 10:01:44;;;;;;;103.03;33.88;;;;;;;3.09;100.00;101113.13;5030502;28;20834;-74
2021/12/11 10:04:17;;;;;;;92.88;32.80;;;;;;;3.17;100.00;101120.44;5027210;28;20049;-74
2021/12/11 10:09:33;;;;;;;111.05;35.72;;;;;;;3.28;100.00;101121.59;5029807;28;20053;-74
2021/12/11 10:12:08;;;;;;;100.13;35.47;;;;;;;3.26;100.00;101119.22;5045962;28;20108;-74
2021/12/11 10:14:39;;;;;;;99.32;34.35;;;;;;;3.34;100.00;101120.25;5042666;28;20135;-75
2021/12/11 10:17:11;;;;;;;99.07;33.53;;;;;;;3.36;100.00;101129.72;5027483;28;20611;-74
2021/12/11 10:19:40;;;;;;;95.78;34.38;;;;;;;3.35;100.00;101127.31;5030954;28;20136;-74
2021/12/11 10:22:20;;;;;;;103.93;36.25;;;;;;;3.42;100.00;101135.75;5040870;28;20053;-72
2021/12/11 10:24:48;;;;;;;105.90;35.30;;;;;;;3.46;100.00;101134.75;5032322;28;20061;-72
2021/12/11 10:27:19;;;;;;;89.88;30.63;;;;;;;3.44;100.00;101133.50;5028964;28;20489;-74
2021/12/11 10:29:47;;;;;;;100.95;33.17;;;;;;;3.55;100.00;101143.66;5028751;28;20145;-73
2021/12/11 10:32:21;;;;;;;104.95;33.22;;;;;;;3.58;100.00;101137.47;5036236;28;20124;-73
2021/12/11 10:34:52;;;;;;;100.88;35.03;;;;;;;3.64;100.00;101141.59;5029851;28;20140;-73
2021/12/11 10:37:28;;;;;;;106.82;33.55;;;;;;;3.67;100.00;101137.38;5038270;28;20136;-72
2021/12/11 10:39:59;;;;;;;105.47;32.38;;;;;;;3.71;100.00;101128.16;5047206;28;20049;-73
2021/12/11 10:42:26;;;;;;;97.32;33.38;;;;;;;3.78;100.00;101138.56;5030391;28;20132;-73
2021/12/11 10:44:58;;;;;;;99.55;35.03;;;;;;;3.81;100.00;101130.44;5027905;28;20076;-73
2021/12/11 10:47:34;;;;;;;82.88;30.67;;;;;;;3.83;100.00;101127.38;5029390;28;20494;-74
2021/12/11 10:50:26;;;;;;;87.10;27.60;;;;;;;3.80;100.00;101134.31;5033728;28;20053;-75
2021/12/11 10:52:53;;;;;;;81.63;27.20;;;;;;;3.81;100.00;101135.91;5029290;28;20085;-75
2021/12/11 10:55:25;;;;;;;82.18;30.85;;;;;;;3.83;100.00;101139.13;5030769;28;20918;-74
2021/12/11 10:57:54;;;;;;;86.45;31.67;;;;;;;3.84;100.00;101140.72;5048668;28;20049;-74
2021/12/11 11:00:28;;;;;;;82.85;30.25;;;;;;;3.86;100.00;101143.09;5042716;28;20079;-74
2021/12/11 11:02:55;;;;;;;44.88;13.98;;;;;;;3.84;100.00;101142.63;5030717;28;20057;-74
2021/12/11 11:05:24;;;;;;;86.22;32.25;;;;;;;3.86;100.00;101134.91;5030010;28;20390;-75
2021/12/11 11:07:51;;;;;;;63.83;24.88;;;;;;;3.91;100.00;101145.63;5039066;28;20213;-75
2021/12/11 11:10:25;;;;;;;73.25;28.58;;;;;;;3.92;100.00;101145.25;5046731;28;20084;-74
2021/12/11 11:12:53;;;;;;;65.45;23.92;;;;;;;3.96;100.00;101148.13;5047387;28;20079;-74
2021/12/11 11:15:23;;;;;;;70.82;25.50;;;;;;;3.96;100.00;101148.13;5034630;28;20068;-74
2021/12/11 11:17:51;;;;;;;15.05;8.25;;;;;;;3.94;100.00;101144.91;5049200;28;20092;-74
2021/12/11 11:20:25;;;;;;;27.48;11.50;;;;;;;3.97;100.00;101145.06;5036826;28;20049;-74
2021/12/11 11:22:51;;;;;;;87.32;30.55;;;;;;;4.05;100.00;101146.09;5040616;28;20416;-74
2021/12/11 11:25:25;;;;;;;95.18;29.45;;;;;;;4.14;100.00;101144.00;5030325;28;20132;-74
2021/12/11 11:27:57;;;;;;;82.78;31.65;;;;;;;4.17;100.00;101144.13;5031141;28;20081;-75
2021/12/11 11:30:31;;;;;;;92.63;31.17;;;;;;;4.21;100.00;101150.50;5016403;28;20053;-74
2021/12/11 11:32:59;;;;;;;83.38;28.88;;;;;;;4.24;100.00;101155.31;5018861;28;20073;-74
2021/12/11 11:35:29;;;;;;;75.68;26.98;;;;;;;4.25;100.00;101153.38;5022913;28;20148;-74
2021/12/11 11:37:59;;;;;;;78.65;28.35;;;;;;;4.31;100.00;101158.25;5019742;28;20087;-73
2021/12/11 11:40:31;;;;;;;23.02;10.05;;;;;;;4.24;100.00;101155.31;5023442;28;20151;-74
2021/12/11 11:42:58;;;;;;;37.17;14.73;;;;;;;4.29;100.00;101162.50;5024465;28;20104;-75
2021/12/11 11:45:27;;;;;;;45.10;14.77;;;;;;;4.26;100.00;101163.97;5017259;28;20051;-74